createdAt,value
2018-09-05T00:00:13.610Z,87.80
2018-09-05T00:02:43.682Z,88.60
2018-09-05T00:05:13.955Z,88.40
2018-09-05T00:07:44.150Z,88.80
2018-09-05T00:10:14.265Z,88.80
2018-09-05T00:12:44.225Z,89.40
2018-09-05T00:15:14.237Z,88.10
2018-09-05T00:17:44.152Z,88.30
2018-09-05T00:20:14.094Z,87.50
2018-09-05T00:22:44.072Z,88.20
2018-09-05T00:25:14.194Z,88.70
2018-09-05T00:27:44.385Z,88.40
2018-09-05T00:30:14.976Z,90.00
2018-09-05T00:32:45.193Z,90.00
2018-09-05T00:35:15.156Z,90.00
2018-09-05T00:37:45.459Z,90.20
2018-09-05T00:40:15.458Z,90.00
2018-09-05T00:42:45.907Z,90.00
2018-09-05T00:45:16.271Z,90.00
2018-09-05T00:47:46.260Z,90.20
2018-09-05T00:53:15.960Z,90.60
2018-09-05T00:55:46.343Z,90.60
2018-09-05T00:58:16.728Z,91.20
2018-09-05T01:00:46.872Z,91.10
2018-09-05T01:03:17.011Z,91.30
2018-09-05T01:05:47.316Z,91.30
2018-09-05T01:08:17.399Z,91.50
2018-09-05T01:10:47.839Z,91.40
2018-09-05T01:13:17.738Z,91.30
2018-09-05T01:15:47.948Z,91.20
2018-09-05T01:18:17.916Z,92.00
2018-09-05T01:20:47.875Z,91.80
2018-09-05T01:23:18.070Z,92.00
2018-09-05T01:25:48.040Z,91.90
2018-09-05T01:28:18.094Z,92.10
2018-09-05T01:30:48.549Z,92.40
2018-09-05T01:33:18.579Z,92.80
2018-09-05T01:35:48.528Z,92.90
2018-09-05T01:38:18.521Z,93.40
2018-09-05T01:40:48.747Z,93.00
2018-09-05T01:43:18.747Z,93.10
2018-09-05T01:45:48.734Z,93.10
2018-09-05T01:48:18.712Z,93.00
2018-09-05T01:50:48.715Z,92.60
2018-09-05T01:53:18.736Z,93.30
2018-09-05T01:55:48.893Z,93.60
2018-09-05T01:58:18.898Z,93.40
2018-09-05T02:00:49.088Z,93.80
2018-09-05T02:03:19.067Z,93.90
2018-09-05T02:05:49.051Z,93.60
2018-09-05T02:08:19.247Z,93.10
2018-09-05T02:10:49.200Z,93.30
2018-09-05T02:13:19.240Z,93.80
2018-09-05T02:15:49.209Z,94.20
2018-09-05T02:18:19.172Z,94.00
2018-09-05T02:20:49.214Z,93.90
2018-09-05T02:23:19.147Z,94.40
2018-09-05T02:25:49.079Z,94.40
2018-09-05T02:28:19.101Z,94.50
2018-09-05T02:30:49.093Z,94.90
2018-09-05T02:33:19.023Z,94.90
2018-09-05T02:35:49.094Z,94.90
2018-09-05T02:38:19.026Z,95.20
2018-09-05T02:40:48.961Z,95.60
2018-09-05T02:43:24.181Z,94.90
2018-09-05T02:45:54.577Z,94.60
2018-09-05T02:48:24.628Z,94.60
2018-09-05T02:50:54.618Z,95.10
2018-09-05T02:53:24.612Z,95.30
2018-09-05T02:56:00.061Z,95.30
2018-09-05T02:58:32.745Z,95.50
2018-09-05T03:01:05.548Z,95.80
2018-09-05T03:03:38.455Z,95.80
2018-09-05T03:06:10.726Z,95.80
2018-09-05T03:08:42.963Z,96.10
2018-09-05T03:11:14.318Z,96.40
2018-09-05T03:13:45.573Z,96.40
2018-09-05T03:16:16.470Z,96.70
2018-09-05T03:18:46.772Z,97.10
2018-09-05T03:21:16.880Z,97.20
2018-09-05T03:23:47.777Z,97.30
2018-09-05T03:26:17.944Z,97.40
2018-09-05T03:28:48.430Z,97.30
2018-09-05T03:31:18.740Z,97.20
2018-09-05T03:33:48.724Z,97.10
2018-09-05T03:36:18.683Z,97.10
2018-09-05T03:38:48.673Z,97.10
2018-09-05T03:41:18.793Z,96.90
2018-09-05T03:43:48.803Z,97.00
2018-09-05T03:46:18.974Z,96.90
2018-09-05T03:48:49.088Z,96.90
2018-09-05T03:51:19.019Z,96.90
2018-09-05T03:53:49.119Z,96.70
2018-09-05T03:56:19.058Z,96.60
2018-09-05T03:58:49.009Z,96.20
2018-09-05T04:01:19.000Z,96.10
2018-09-05T04:03:48.950Z,96.10
2018-09-05T04:06:21.386Z,95.90
2018-09-05T04:08:52.738Z,95.70
2018-09-05T04:11:22.963Z,95.80
2018-09-05T04:13:53.045Z,95.80
2018-09-05T04:16:23.031Z,95.90
2018-09-05T04:18:53.089Z,96.00
2018-09-05T04:21:23.074Z,95.80
2018-09-05T04:23:53.079Z,95.40
2018-09-05T04:26:23.386Z,95.40
2018-09-05T04:28:54.159Z,95.50
2018-09-05T04:31:25.128Z,95.50
2018-09-05T04:33:55.269Z,95.80
2018-09-05T04:36:27.167Z,96.00
2018-09-05T04:38:59.591Z,96.00
2018-09-05T04:41:32.117Z,95.80
2018-09-05T04:44:09.295Z,95.60
2018-09-05T04:46:42.595Z,95.20
2018-09-05T04:49:13.817Z,95.10
2018-09-05T04:51:45.120Z,95.20
2018-09-05T04:54:17.508Z,95.00
2018-09-05T04:56:47.406Z,94.90
2018-09-05T04:59:17.379Z,94.50
2018-09-05T05:01:47.433Z,94.20
2018-09-05T05:04:17.452Z,94.10
2018-09-05T05:06:47.437Z,94.10
2018-09-05T05:09:17.511Z,94.10
2018-09-05T05:11:47.459Z,93.40
2018-09-05T05:14:17.430Z,93.50
2018-09-05T05:16:47.482Z,93.70
2018-09-05T05:19:17.565Z,93.20
2018-09-05T05:21:47.547Z,93.00
2018-09-05T05:24:17.575Z,92.40
2018-09-05T05:26:47.527Z,92.20
2018-09-05T05:29:17.502Z,92.10
2018-09-05T05:31:47.529Z,91.90
2018-09-05T05:34:17.988Z,91.70
2018-09-05T05:36:48.042Z,91.50
2018-09-05T05:39:18.090Z,91.40
2018-09-05T05:41:48.144Z,91.90
2018-09-05T05:44:19.357Z,91.60
2018-09-05T05:46:49.368Z,91.70
2018-09-05T05:49:27.952Z,91.50
2018-09-05T05:52:05.461Z,91.50
2018-09-05T05:54:41.691Z,90.80
2018-09-05T05:57:14.155Z,90.80
2018-09-05T05:59:44.235Z,91.00
2018-09-05T06:02:14.300Z,91.30
2018-09-05T06:04:44.560Z,90.80
2018-09-05T06:07:14.532Z,89.80
2018-09-05T06:09:44.507Z,90.10
2018-09-05T06:12:14.560Z,90.20
2018-09-05T06:14:44.444Z,90.20
2018-09-05T06:17:14.390Z,90.20
2018-09-05T06:19:44.674Z,90.60
2018-09-05T06:22:14.791Z,90.50
2018-09-05T06:24:45.043Z,90.10
2018-09-05T06:27:14.989Z,88.80
2018-09-05T06:29:45.105Z,87.10
2018-09-05T06:32:15.079Z,84.60
2018-09-05T06:34:45.049Z,85.20
2018-09-05T06:37:15.061Z,86.30
2018-09-05T06:39:44.966Z,85.80
2018-09-05T06:42:15.048Z,86.30
2018-09-05T06:44:45.051Z,85.40
2018-09-05T06:47:15.026Z,83.00
2018-09-05T06:49:45.000Z,82.10
2018-09-05T06:52:14.897Z,81.90
2018-09-05T06:54:45.083Z,79.10
2018-09-05T06:57:15.213Z,79.50
2018-09-05T06:59:45.179Z,79.50
2018-09-05T07:02:15.169Z,79.00
2018-09-05T07:04:45.143Z,78.60
2018-09-05T07:07:15.141Z,77.70
2018-09-05T07:09:45.187Z,77.80
2018-09-05T07:12:15.132Z,77.90
2018-09-05T07:14:45.196Z,75.80
2018-09-05T07:17:15.150Z,74.00
2018-09-05T07:19:45.067Z,73.30
2018-09-05T07:22:15.019Z,74.30
2018-09-05T07:24:44.931Z,73.40
2018-09-05T07:27:14.879Z,73.20
2018-09-05T07:29:44.927Z,70.70
2018-09-05T07:32:14.962Z,69.10
2018-09-05T07:34:45.088Z,69.10
2018-09-05T07:37:15.334Z,68.00
2018-09-05T07:39:45.381Z,66.30
2018-09-05T07:42:15.480Z,67.10
2018-09-05T07:44:45.399Z,65.60
2018-09-05T07:47:15.412Z,65.70
2018-09-05T07:49:45.400Z,67.30
2018-09-05T07:52:15.436Z,66.60
2018-09-05T07:54:46.137Z,66.60
2018-09-05T07:57:16.970Z,67.00
2018-09-05T07:59:46.971Z,65.70
2018-09-05T08:02:16.991Z,64.90
2018-09-05T08:04:46.955Z,64.00
2018-09-05T08:07:17.133Z,64.20
2018-09-05T08:09:47.145Z,64.90
2018-09-05T08:12:17.098Z,64.60
2018-09-05T08:14:47.072Z,64.20
2018-09-05T08:17:17.167Z,64.00
2018-09-05T08:22:45.436Z,62.90
2018-09-05T08:25:15.500Z,62.60
2018-09-05T08:27:45.644Z,61.30
2018-09-05T08:30:15.616Z,61.90
2018-09-05T08:32:46.363Z,59.80
2018-09-05T08:35:16.653Z,59.50
2018-09-05T08:37:46.478Z,58.50
2018-09-05T08:40:16.405Z,58.30
2018-09-05T08:42:46.440Z,57.70
2018-09-05T08:45:16.546Z,58.00
2018-09-05T08:47:46.416Z,57.30
2018-09-05T08:50:16.279Z,57.00
2018-09-05T08:52:46.357Z,56.00
2018-09-05T08:55:16.237Z,55.60
2018-09-05T08:57:46.215Z,55.40
2018-09-05T09:00:16.176Z,55.40
2018-09-05T09:02:46.211Z,55.00
2018-09-05T09:05:16.364Z,55.10
2018-09-05T09:07:46.346Z,54.60
2018-09-05T09:10:16.282Z,54.50
2018-09-05T09:12:46.197Z,53.50
2018-09-05T09:15:22.876Z,53.80
2018-09-05T09:17:52.968Z,52.80
2018-09-05T09:20:22.905Z,52.20
2018-09-05T09:22:52.834Z,50.20
2018-09-05T09:25:22.878Z,50.90
2018-09-05T09:27:52.805Z,50.40
2018-09-05T09:30:22.809Z,49.30
2018-09-05T09:32:52.795Z,48.40
2018-09-05T09:35:22.813Z,49.20
2018-09-05T09:37:52.775Z,48.60
2018-09-05T09:40:22.771Z,48.50
2018-09-05T09:42:53.059Z,47.30
2018-09-05T09:45:23.002Z,47.90
2018-09-05T09:47:52.985Z,48.40
2018-09-05T09:50:23.012Z,48.70
2018-09-05T09:52:53.000Z,47.10
2018-09-05T09:55:23.086Z,46.30
2018-09-05T09:57:53.051Z,47.20
2018-09-05T10:00:28.282Z,47.30
2018-09-05T10:03:03.960Z,46.40
2018-09-05T10:05:39.881Z,46.50
2018-09-05T10:08:10.765Z,45.50
2018-09-05T10:10:46.381Z,45.70
2018-09-05T10:13:21.654Z,45.30
2018-09-05T10:15:57.005Z,44.90
2018-09-05T10:18:28.677Z,44.90
2018-09-05T10:20:59.045Z,44.30
2018-09-05T10:23:29.508Z,43.70
2018-09-05T10:26:00.008Z,43.30
2018-09-05T10:28:30.188Z,43.70
2018-09-05T10:31:00.213Z,44.40
2018-09-05T10:33:30.485Z,42.80
2018-09-05T10:36:01.131Z,42.50
2018-09-05T10:38:31.957Z,42.50
2018-09-05T10:41:02.298Z,42.60
2018-09-05T10:43:32.839Z,42.20
2018-09-05T10:46:03.398Z,42.10
2018-09-05T10:48:34.046Z,42.00
2018-09-05T10:51:04.514Z,42.70
2018-09-05T10:53:35.508Z,43.20
2018-09-05T10:56:06.481Z,43.50
2018-09-05T10:58:37.428Z,43.20
2018-09-05T11:01:08.307Z,43.10
2018-09-05T11:03:38.891Z,42.50
2018-09-05T11:06:09.903Z,41.70
2018-09-05T11:08:40.587Z,41.20
2018-09-05T11:11:10.962Z,40.60
2018-09-05T11:13:41.212Z,41.00
2018-09-05T11:16:11.780Z,42.20
2018-09-05T11:18:42.427Z,42.40
2018-09-05T11:21:12.712Z,41.80
2018-09-05T11:23:43.068Z,42.00
2018-09-05T11:26:13.481Z,42.10
2018-09-05T11:28:43.850Z,43.10
2018-09-05T11:31:13.996Z,44.90
2018-09-05T11:33:44.049Z,44.60
2018-09-05T11:36:14.029Z,44.90
2018-09-05T11:38:44.474Z,45.50
2018-09-05T11:41:14.658Z,44.60
2018-09-05T11:43:44.836Z,44.50
2018-09-05T11:46:14.953Z,44.40
2018-09-05T11:48:44.977Z,45.10
2018-09-05T11:51:14.955Z,44.30
2018-09-05T11:53:45.322Z,44.40
2018-09-05T11:56:15.281Z,44.20
2018-09-05T11:58:45.224Z,43.50
2018-09-05T12:01:15.200Z,44.40
2018-09-05T12:03:45.253Z,43.50
2018-09-05T12:06:15.227Z,44.30
2018-09-05T12:08:45.204Z,44.30
2018-09-05T12:11:15.380Z,44.40
2018-09-05T12:13:45.752Z,44.50
2018-09-05T12:16:15.736Z,43.50
2018-09-05T12:18:45.732Z,43.20
2018-09-05T12:21:15.695Z,43.30
2018-09-05T12:23:45.656Z,42.10
2018-09-05T12:26:22.368Z,42.00
2018-09-05T12:28:52.500Z,42.40
2018-09-05T12:31:22.628Z,41.50
2018-09-05T12:33:52.696Z,40.60
2018-09-05T12:36:22.682Z,40.10
2018-09-05T12:38:52.627Z,39.70
2018-09-05T12:41:22.547Z,38.50
2018-09-05T12:43:52.475Z,38.80
2018-09-05T12:46:22.391Z,36.70
2018-09-05T12:48:52.398Z,37.30
2018-09-05T12:51:22.428Z,37.20
2018-09-05T12:53:52.452Z,37.30
2018-09-05T12:56:22.375Z,37.00
2018-09-05T12:58:52.413Z,37.20
2018-09-05T13:01:22.431Z,37.10
2018-09-05T13:03:52.372Z,37.00
2018-09-05T13:06:22.282Z,37.30
2018-09-05T13:08:52.323Z,37.30
2018-09-05T13:11:22.293Z,37.30
2018-09-05T13:13:52.191Z,37.90
2018-09-05T13:16:22.164Z,36.10
2018-09-05T13:18:52.101Z,36.10
2018-09-05T13:21:22.019Z,36.40
2018-09-05T13:23:52.069Z,35.70
2018-09-05T13:26:22.007Z,36.70
2018-09-05T13:28:51.964Z,37.50
2018-09-05T13:31:21.990Z,37.60
2018-09-05T13:33:52.370Z,39.10
2018-09-05T13:36:22.468Z,39.00
2018-09-05T13:38:52.556Z,37.50
2018-09-05T13:41:22.531Z,37.70
2018-09-05T13:43:52.514Z,37.40
2018-09-05T13:46:22.548Z,38.70
2018-09-05T13:48:52.607Z,37.60
2018-09-05T13:51:22.597Z,39.10
2018-09-05T13:53:52.587Z,38.90
2018-09-05T13:56:22.528Z,39.40
2018-09-05T13:58:52.512Z,38.60
2018-09-05T14:01:22.504Z,38.40
2018-09-05T14:03:52.943Z,38.00
2018-09-05T14:06:22.966Z,38.40
2018-09-05T14:08:53.081Z,37.60
2018-09-05T14:11:23.040Z,37.60
2018-09-05T14:13:53.054Z,37.60
2018-09-05T14:16:23.054Z,37.90
2018-09-05T14:18:53.103Z,37.90
2018-09-05T14:21:23.174Z,37.20
2018-09-05T14:23:53.111Z,37.10
2018-09-05T14:26:23.052Z,37.60
2018-09-05T14:28:53.055Z,37.40
2018-09-05T14:31:23.013Z,37.60
2018-09-05T14:33:53.168Z,37.10
2018-09-05T14:36:23.284Z,36.70
2018-09-05T14:39:13.046Z,36.70
2018-09-05T14:41:43.568Z,36.50
2018-09-05T14:44:13.754Z,36.10
2018-09-05T14:46:44.187Z,36.70
2018-09-05T14:49:14.724Z,36.10
2018-09-05T14:51:45.427Z,36.40
2018-09-05T14:54:15.542Z,36.30
2018-09-05T14:56:45.554Z,35.90
2018-09-05T14:59:15.704Z,36.10
2018-09-05T15:01:45.676Z,36.10
2018-09-05T15:04:15.645Z,36.60
2018-09-05T15:06:45.590Z,35.90
2018-09-05T15:09:15.587Z,36.00
2018-09-05T15:11:45.536Z,35.80
2018-09-05T15:14:15.603Z,36.30
2018-09-05T15:16:45.539Z,35.80
2018-09-05T15:19:15.541Z,36.30
2018-09-05T15:21:45.475Z,36.40
2018-09-05T15:24:15.487Z,35.80
2018-09-05T15:26:45.516Z,35.90
2018-09-05T15:29:15.530Z,36.00
2018-09-05T15:31:46.816Z,35.50
2018-09-05T15:34:16.825Z,35.40
2018-09-05T15:36:46.942Z,36.70
2018-09-05T15:39:17.199Z,35.90
2018-09-05T15:41:47.109Z,36.50
2018-09-05T15:44:17.110Z,36.00
2018-09-05T15:46:47.444Z,36.20
2018-09-05T15:49:17.479Z,36.50
2018-09-05T15:51:47.525Z,36.20
2018-09-05T15:54:17.492Z,36.50
2018-09-05T15:56:47.572Z,36.40
2018-09-05T15:59:17.535Z,36.20
2018-09-05T16:01:47.518Z,36.30
2018-09-05T16:04:17.537Z,36.40
2018-09-05T16:06:47.517Z,36.50
2018-09-05T16:09:17.648Z,37.40
2018-09-05T16:11:58.166Z,36.30
2018-09-05T16:14:28.339Z,36.70
2018-09-05T16:16:58.589Z,36.80
2018-09-05T16:19:28.660Z,36.60
2018-09-05T16:21:58.752Z,36.60
2018-09-05T16:24:28.594Z,36.20
2018-09-05T16:26:58.520Z,37.10
2018-09-05T16:29:28.572Z,36.60
2018-09-05T16:31:58.784Z,36.30
2018-09-05T16:34:28.952Z,36.50
2018-09-05T16:36:58.940Z,36.00
2018-09-05T16:39:28.883Z,36.70
2018-09-05T16:41:58.911Z,36.10
2018-09-05T16:44:28.851Z,36.40
2018-09-05T16:46:58.920Z,36.20
2018-09-05T16:49:28.855Z,36.60
2018-09-05T16:51:58.889Z,36.40
2018-09-05T16:54:28.881Z,36.70
2018-09-05T16:56:58.795Z,37.00
2018-09-05T16:59:28.706Z,37.00
2018-09-05T17:01:58.766Z,37.10
2018-09-05T17:04:28.778Z,37.50
2018-09-05T17:06:58.751Z,37.80
2018-09-05T17:09:28.748Z,38.00
2018-09-05T17:11:59.179Z,37.90
2018-09-05T17:14:29.220Z,37.70
2018-09-05T17:17:09.397Z,38.20
2018-09-05T17:19:39.343Z,38.40
2018-09-05T17:22:09.425Z,38.90
2018-09-05T17:24:39.436Z,38.90
2018-09-05T17:27:09.466Z,38.80
2018-09-05T17:29:39.423Z,38.70
2018-09-05T17:32:09.505Z,38.60
2018-09-05T17:34:39.601Z,39.10
2018-09-05T17:37:09.644Z,39.60
2018-09-05T17:39:40.602Z,40.20
2018-09-05T17:42:10.555Z,40.40
2018-09-05T17:44:40.520Z,40.70
2018-09-05T17:47:10.530Z,40.70
2018-09-05T17:49:40.508Z,41.00
2018-09-05T17:52:10.564Z,41.10
2018-09-05T17:54:40.567Z,41.20
2018-09-05T17:57:10.562Z,41.70
2018-09-05T17:59:42.768Z,41.80
2018-09-05T18:02:12.750Z,41.70
2018-09-05T18:04:42.781Z,41.50
2018-09-05T18:07:12.812Z,41.50
2018-09-05T18:09:42.712Z,41.50
2018-09-05T18:12:12.676Z,41.50
2018-09-05T18:14:42.728Z,41.70
2018-09-05T18:17:12.812Z,42.30
2018-09-05T18:19:42.772Z,42.30
2018-09-05T18:22:31.835Z,42.80
2018-09-05T18:25:01.770Z,43.00
2018-09-05T18:27:31.853Z,43.60
2018-09-05T18:30:01.820Z,43.90
2018-09-05T18:32:36.351Z,43.80
2018-09-05T18:35:06.469Z,44.00
2018-09-05T18:37:36.539Z,44.50
2018-09-05T18:40:06.550Z,45.00
2018-09-05T18:42:36.890Z,45.30
2018-09-05T18:45:08.090Z,45.50
2018-09-05T18:47:38.189Z,45.90
2018-09-05T18:50:08.112Z,45.90
2018-09-05T18:53:12.123Z,46.30
2018-09-05T18:55:43.572Z,46.30
2018-09-05T18:58:13.549Z,47.30
2018-09-05T19:00:43.483Z,46.00
2018-09-05T19:03:18.727Z,46.00
2018-09-05T19:05:48.659Z,46.10
2018-09-05T19:08:18.696Z,46.10
2018-09-05T19:10:48.651Z,46.70
2018-09-05T19:13:18.743Z,46.60
2018-09-05T19:15:48.827Z,46.70
2018-09-05T19:18:33.546Z,46.90
2018-09-05T19:21:03.469Z,47.20
2018-09-05T19:23:34.053Z,47.30
2018-09-05T19:26:04.179Z,47.90
2018-09-05T19:28:34.183Z,48.00
2018-09-05T19:31:04.164Z,48.20
2018-09-05T19:33:34.227Z,48.40
2018-09-05T19:36:15.629Z,48.60
2018-09-05T19:38:45.619Z,48.90
2018-09-05T19:41:15.592Z,49.10
2018-09-05T19:43:45.545Z,49.20
2018-09-05T19:46:15.554Z,49.60
2018-09-05T19:48:45.505Z,49.90
2018-09-05T19:51:15.476Z,50.60
2018-09-05T19:53:45.411Z,50.60
2018-09-05T19:56:15.413Z,50.90
2018-09-05T19:58:45.367Z,50.90
2018-09-05T20:01:15.355Z,51.20
2018-09-05T20:03:45.340Z,51.60
2018-09-05T20:06:15.295Z,51.80
2018-09-05T20:08:45.315Z,52.50
2018-09-05T20:11:15.275Z,52.20
2018-09-05T20:13:45.163Z,52.50
2018-09-05T20:16:15.148Z,52.80
2018-09-05T20:18:45.166Z,53.00
2018-09-05T20:21:15.229Z,53.10
2018-09-05T20:23:45.185Z,53.30
2018-09-05T20:26:15.153Z,53.60
2018-09-05T20:28:45.130Z,53.80
2018-09-05T20:31:15.438Z,54.10
2018-09-05T20:33:45.397Z,54.20
2018-09-05T20:36:15.315Z,54.30
2018-09-05T20:38:45.539Z,55.00
2018-09-05T20:41:15.794Z,55.00
2018-09-05T20:43:45.848Z,54.80
2018-09-05T20:46:16.881Z,54.80
2018-09-05T20:48:48.298Z,54.90
2018-09-05T20:51:31.532Z,55.00
2018-09-05T20:54:01.747Z,55.20
2018-09-05T20:56:31.911Z,55.40
2018-09-05T20:59:01.998Z,55.80
2018-09-05T21:01:41.635Z,56.00
2018-09-05T21:04:11.638Z,56.30
2018-09-05T21:06:41.599Z,56.50
2018-09-05T21:09:11.656Z,56.60
2018-09-05T21:11:41.595Z,56.80
2018-09-05T21:14:11.648Z,57.10
2018-09-05T21:16:41.602Z,57.20
2018-09-05T21:19:11.600Z,57.60
2018-09-05T21:21:41.538Z,57.80
2018-09-05T21:24:11.538Z,58.30
2018-09-05T21:26:41.545Z,58.80
2018-09-05T21:29:11.641Z,58.80
2018-09-05T21:31:41.612Z,58.80
2018-09-05T21:34:11.573Z,58.70
2018-09-05T21:36:41.663Z,59.20
2018-09-05T21:39:11.876Z,59.70
2018-09-05T21:41:41.806Z,60.00
2018-09-05T21:44:11.805Z,60.20
2018-09-05T21:46:41.847Z,60.20
2018-09-05T21:49:11.872Z,60.40
2018-09-05T21:51:41.821Z,60.90
2018-09-05T21:54:11.791Z,61.40
2018-09-05T21:56:41.845Z,61.70
2018-09-05T21:59:11.824Z,62.00
2018-09-05T22:01:41.961Z,62.30
2018-09-05T22:04:12.121Z,62.60
2018-09-05T22:06:42.102Z,62.50
2018-09-05T22:09:12.139Z,62.60
2018-09-05T22:11:42.144Z,63.00
2018-09-05T22:14:13.303Z,62.90
2018-09-05T22:16:43.348Z,62.90
2018-09-05T22:19:13.343Z,63.50
2018-09-05T22:21:43.311Z,63.90
2018-09-05T22:24:14.371Z,63.90
2018-09-05T22:26:44.291Z,64.20
2018-09-05T22:29:14.260Z,64.30
2018-09-05T22:31:44.188Z,64.30
2018-09-05T22:34:14.184Z,64.70
2018-09-05T22:36:44.167Z,64.90
2018-09-05T22:39:14.204Z,65.10
2018-09-05T22:41:44.267Z,65.30
2018-09-05T22:44:31.269Z,65.70
2018-09-05T22:47:18.292Z,66.00
2018-09-05T22:52:31.243Z,66.50
2018-09-05T22:55:25.825Z,66.50
2018-09-05T23:01:18.756Z,67.30
2018-09-05T23:04:14.407Z,67.30
2018-09-05T23:07:06.550Z,68.00
2018-09-05T23:09:53.505Z,67.80
2018-09-05T23:12:40.419Z,67.50
2018-09-05T23:15:27.483Z,67.80
2018-09-05T23:18:29.368Z,67.80
2018-09-05T23:21:26.137Z,67.90
2018-09-05T23:24:10.007Z,68.50
2018-09-05T23:26:40.079Z,68.90
2018-09-05T23:29:10.405Z,69.30
2018-09-05T23:31:40.708Z,69.40
2018-09-05T23:34:10.998Z,69.90
2018-09-05T23:36:41.270Z,69.70
2018-09-05T23:39:11.751Z,69.80
2018-09-05T23:41:42.116Z,70.20
2018-09-05T23:44:12.262Z,70.20
2018-09-05T23:46:42.716Z,70.20
2018-09-05T23:49:12.987Z,69.90
2018-09-05T23:51:43.351Z,70.10
2018-09-05T23:54:13.371Z,69.10
2018-09-05T23:56:43.555Z,69.20
2018-09-05T23:59:13.826Z,69.20
